createdAt,value
2023-02-16T00:02:37.161Z,45.22
2023-02-16T00:08:17.679Z,42.53
2023-02-16T00:11:22.153Z,44.33
2023-02-16T00:14:16.179Z,45.38
2023-02-16T00:17:12.145Z,45.53
2023-02-16T00:19:59.153Z,43.30
2023-02-16T00:25:26.173Z,46.30
2023-02-16T00:30:56.214Z,45.15
2023-02-16T00:33:36.227Z,47.42
2023-02-16T00:36:23.133Z,44.10
2023-02-16T00:39:03.217Z,47.28
2023-02-16T00:42:00.172Z,48.35
2023-02-16T00:44:45.218Z,46.75
2023-02-16T00:47:44.166Z,47.15
2023-02-16T00:50:42.145Z,45.38
2023-02-16T00:53:31.161Z,45.38
2023-02-16T00:56:11.227Z,48.42
2023-02-16T00:59:00.178Z,46.33
2023-02-16T01:01:44.313Z,45.33
2023-02-16T01:04:31.195Z,46.40
2023-02-16T01:10:44.151Z,54.90
2023-02-16T01:13:24.250Z,48.92
2023-02-16T01:16:11.230Z,44.30
2023-02-16T01:21:38.153Z,45.83
2023-02-16T01:24:18.672Z,50.10
2023-02-16T01:27:05.177Z,46.33
2023-02-16T01:32:32.165Z,45.58
2023-02-16T01:35:20.236Z,48.75
2023-02-16T01:38:00.170Z,47.85
2023-02-16T01:40:46.425Z,45.72
2023-02-16T01:43:42.170Z,47.35
2023-02-16T01:47:13.155Z,43.67
2023-02-16T01:50:02.850Z,47.08
2023-02-16T01:52:56.151Z,46.72
2023-02-16T01:55:44.158Z,45.80
2023-02-16T01:58:50.618Z,48.30
2023-02-16T02:02:00.257Z,50.35
2023-02-16T02:05:09.578Z,48.60
2023-02-16T02:08:24.141Z,49.67
2023-02-16T02:11:39.174Z,46.58
2023-02-16T02:14:35.154Z,45.35
2023-02-16T02:17:33.156Z,42.05
2023-02-16T02:21:07.150Z,45.78
2023-02-16T02:24:23.170Z,50.72
2023-02-16T02:27:13.172Z,44.35
2023-02-16T02:30:42.174Z,49.15
2023-02-16T02:34:11.163Z,50.40
2023-02-16T02:37:07.293Z,46.55
2023-02-16T02:40:00.170Z,46.50
2023-02-16T02:42:58.221Z,46.60
2023-02-16T02:45:52.186Z,45.10
2023-02-16T02:48:40.235Z,48.08
2023-02-16T02:51:36.168Z,46.30
2023-02-16T02:55:00.170Z,49.13
2023-02-16T03:00:56.178Z,47.53
2023-02-16T03:03:53.161Z,47.65
2023-02-16T03:06:37.247Z,42.38
2023-02-16T03:09:25.181Z,46.88
2023-02-16T03:12:33.169Z,42.90
2023-02-16T03:15:14.290Z,46.60
2023-02-16T03:18:20.174Z,45.55
2023-02-16T03:21:27.184Z,42.17
2023-02-16T03:24:27.986Z,44.70
2023-02-16T03:27:34.179Z,47.28
2023-02-16T03:30:16.340Z,43.75
2023-02-16T03:33:03.161Z,46.35
2023-02-16T03:35:43.221Z,43.50
2023-02-16T03:38:30.159Z,45.63
2023-02-16T03:43:57.154Z,43.20
2023-02-16T03:49:24.654Z,46.53
2023-02-16T03:52:04.168Z,44.72
2023-02-16T03:54:44.178Z,47.33
2023-02-16T03:57:31.167Z,46.47
2023-02-16T04:02:58.175Z,44.15
2023-02-16T04:05:39.324Z,44.95
2023-02-16T04:08:26.178Z,45.45
2023-02-16T04:14:11.168Z,43.13
2023-02-16T04:16:58.156Z,43.80
2023-02-16T04:22:25.166Z,47.60
2023-02-16T04:25:12.272Z,46.67
2023-02-16T04:27:53.193Z,45.03
2023-02-16T04:30:40.295Z,45.40
2023-02-16T04:33:20.225Z,46.63
2023-02-16T04:36:07.154Z,46.95
2023-02-16T04:41:34.158Z,47.65
2023-02-16T04:44:21.152Z,45.03
2023-02-16T04:47:08.165Z,50.28
2023-02-16T04:52:37.181Z,43.58
2023-02-16T04:58:04.144Z,46.08
2023-02-16T05:00:44.223Z,48.28
2023-02-16T05:03:31.157Z,52.50
2023-02-16T05:08:58.154Z,44.15
2023-02-16T05:14:49.162Z,43.60
2023-02-16T05:17:32.216Z,48.22
2023-02-16T05:20:19.188Z,45.85
2023-02-16T05:22:59.224Z,47.88
2023-02-16T05:25:46.178Z,46.90
2023-02-16T05:31:13.287Z,48.90
2023-02-16T05:36:40.153Z,44.40
2023-02-16T05:42:14.218Z,47.30
2023-02-16T05:44:55.177Z,44.75
2023-02-16T05:47:42.228Z,46.40
2023-02-16T05:53:12.229Z,49.33
2023-02-16T05:55:52.162Z,52.20
2023-02-16T05:58:32.876Z,46.70
2023-02-16T06:01:19.169Z,48.30
2023-02-16T06:06:53.174Z,45.78
2023-02-16T06:12:27.189Z,46.97
2023-02-16T06:17:54.188Z,45.83
2023-02-16T06:23:23.182Z,44.25
2023-02-16T06:26:10.181Z,50.63
2023-02-16T06:31:37.312Z,46.85
2023-02-16T06:37:11.194Z,44.55
2023-02-16T06:42:38.169Z,47.88
2023-02-16T06:48:05.172Z,46.83
2023-02-16T06:53:32.176Z,48.40
2023-02-16T06:58:59.177Z,48.58
2023-02-16T07:04:26.195Z,51.47
2023-02-16T07:09:53.181Z,52.97
2023-02-16T07:15:27.288Z,53.95
2023-02-16T07:20:54.248Z,53.00
2023-02-16T07:26:14.748Z,47.92
2023-02-16T07:29:01.189Z,49.65
2023-02-16T07:34:28.182Z,48.53
2023-02-16T07:39:55.150Z,53.85
2023-02-16T07:42:35.908Z,45.00
2023-02-16T07:48:20.217Z,48.65
2023-02-16T07:51:08.346Z,50.15
2023-02-16T07:53:48.219Z,49.42
2023-02-16T07:56:37.169Z,49.42
2023-02-16T07:59:17.381Z,52.13
2023-02-16T08:02:04.306Z,49.85
2023-02-16T08:07:31.175Z,49.88
2023-02-16T08:12:58.175Z,47.72
2023-02-16T08:18:32.168Z,47.72
2023-02-16T08:21:15.204Z,50.08
2023-02-16T08:24:17.186Z,51.00
2023-02-16T08:27:04.340Z,53.55
2023-02-16T08:32:25.429Z,48.28
2023-02-16T08:35:12.182Z,51.22
2023-02-16T08:40:39.181Z,47.95
2023-02-16T08:46:07.433Z,46.72
2023-02-16T08:48:55.855Z,46.22
2023-02-16T08:51:38.509Z,45.55
2023-02-16T08:54:23.177Z,45.15
2023-02-16T08:57:10.182Z,47.47
2023-02-16T09:03:06.955Z,47.05
2023-02-16T09:05:47.159Z,48.20
2023-02-16T09:08:35.165Z,48.53
2023-02-16T09:11:26.174Z,50.13
2023-02-16T09:14:06.882Z,46.45
2023-02-16T09:16:55.220Z,48.35
2023-02-16T09:19:43.485Z,49.42
2023-02-16T09:22:23.188Z,46.92
2023-02-16T09:25:04.085Z,47.67
2023-02-16T09:27:51.176Z,48.17
2023-02-16T09:33:18.317Z,43.28
2023-02-16T09:36:05.532Z,49.40
2023-02-16T09:38:55.194Z,55.63
2023-02-16T09:42:06.181Z,48.38
2023-02-16T09:44:53.025Z,43.85
2023-02-16T09:50:52.219Z,47.03
2023-02-16T09:53:44.195Z,46.67
2023-02-16T09:56:38.229Z,48.28
2023-02-16T09:59:45.180Z,47.33
2023-02-16T10:02:31.257Z,48.80
2023-02-16T10:05:30.190Z,46.05
2023-02-16T10:08:17.291Z,48.20
2023-02-16T10:14:38.175Z,44.83
2023-02-16T10:17:45.189Z,46.65
2023-02-16T10:20:50.185Z,45.92
2023-02-16T10:23:52.245Z,49.92
2023-02-16T10:26:40.187Z,45.83
2023-02-16T10:29:35.181Z,50.85
2023-02-16T10:32:39.461Z,49.25
2023-02-16T10:35:34.171Z,50.72
2023-02-16T10:38:39.239Z,46.25
2023-02-16T10:41:44.194Z,46.72
2023-02-16T10:44:41.152Z,47.90
2023-02-16T10:47:53.187Z,45.70
2023-02-16T10:50:44.304Z,48.58
2023-02-16T10:53:44.185Z,48.83
2023-02-16T10:57:06.188Z,46.20
2023-02-16T10:59:51.302Z,52.33
2023-02-16T11:03:08.178Z,47.92
2023-02-16T11:05:49.017Z,48.65
2023-02-16T11:08:58.181Z,47.42
2023-02-16T11:11:47.691Z,46.63
2023-02-16T11:14:37.184Z,46.92
2023-02-16T11:17:21.286Z,46.60
2023-02-16T11:20:13.191Z,48.08
2023-02-16T11:22:53.254Z,45.88
2023-02-16T11:25:40.200Z,45.03
2023-02-16T11:31:22.557Z,46.70
2023-02-16T11:34:21.191Z,43.83
2023-02-16T11:37:32.197Z,46.60
2023-02-16T11:40:38.186Z,43.95
2023-02-16T11:43:19.181Z,46.47
2023-02-16T11:46:30.210Z,46.38
2023-02-16T11:49:46.189Z,45.15
2023-02-16T11:52:39.175Z,47.40
2023-02-16T11:55:41.205Z,46.88
2023-02-16T11:58:22.531Z,44.70
2023-02-16T12:01:31.199Z,48.03
2023-02-16T12:04:49.394Z,45.35
2023-02-16T12:07:55.174Z,45.25
2023-02-16T12:10:44.180Z,44.25
2023-02-16T12:14:00.175Z,46.83
2023-02-16T12:17:03.249Z,43.78
2023-02-16T12:19:54.178Z,44.78
2023-02-16T12:22:53.743Z,42.63
2023-02-16T12:25:45.194Z,41.85
2023-02-16T12:28:56.258Z,43.00
2023-02-16T12:32:07.246Z,46.67
2023-02-16T12:35:16.209Z,47.00
2023-02-16T12:38:28.671Z,48.90
2023-02-16T12:41:39.207Z,43.78
2023-02-16T12:44:32.348Z,42.33
2023-02-16T12:50:42.198Z,45.15
2023-02-16T12:53:41.179Z,40.80
2023-02-16T12:56:35.256Z,45.47
2023-02-16T12:59:46.178Z,42.38
2023-02-16T13:02:33.326Z,42.47
2023-02-16T13:05:25.182Z,40.97
2023-02-16T13:08:24.950Z,44.35
2023-02-16T13:14:31.200Z,42.33
2023-02-16T13:17:28.243Z,41.85
2023-02-16T13:20:23.200Z,40.47
2023-02-16T13:23:18.246Z,41.08
2023-02-16T13:26:46.255Z,37.47
2023-02-16T13:30:02.279Z,38.13
2023-02-16T13:33:09.363Z,38.10
2023-02-16T13:36:17.197Z,39.38
2023-02-16T13:39:24.655Z,34.53
2023-02-16T13:42:40.197Z,37.88
2023-02-16T13:45:41.207Z,38.00
2023-02-16T13:48:33.365Z,39.38
2023-02-16T13:51:30.186Z,35.50
2023-02-16T13:54:11.261Z,35.97
2023-02-16T13:56:58.185Z,32.50
2023-02-16T13:59:41.301Z,33.22
2023-02-16T14:03:01.199Z,31.23
2023-02-16T14:05:47.873Z,33.95
2023-02-16T14:08:36.196Z,31.95
2023-02-16T14:11:25.195Z,29.95
2023-02-16T14:14:46.213Z,31.70
2023-02-16T14:17:45.201Z,32.85
2023-02-16T14:20:35.328Z,29.38
2023-02-16T14:23:35.215Z,29.35
2023-02-16T14:26:16.010Z,29.70
2023-02-16T14:29:33.186Z,27.95
2023-02-16T14:32:29.221Z,29.15
2023-02-16T14:35:20.564Z,29.27
2023-02-16T14:38:31.220Z,26.15
2023-02-16T14:41:15.790Z,27.70
2023-02-16T14:44:11.193Z,27.58
2023-02-16T14:47:09.263Z,30.02
2023-02-16T14:50:33.178Z,28.20
2023-02-16T14:53:40.205Z,29.17
2023-02-16T14:56:34.033Z,26.45
2023-02-16T15:02:47.257Z,25.83
2023-02-16T15:05:39.206Z,23.80
2023-02-16T15:08:29.203Z,21.10
2023-02-16T15:11:29.212Z,23.35
2023-02-16T15:14:11.548Z,23.85
2023-02-16T15:17:00.190Z,22.35
2023-02-16T15:19:54.206Z,23.55
2023-02-16T15:22:45.304Z,20.73
2023-02-16T15:25:33.881Z,21.17
2023-02-16T15:28:29.197Z,22.88
2023-02-16T15:31:24.104Z,23.42
2023-02-16T15:34:14.209Z,21.85
2023-02-16T15:37:01.213Z,22.95
2023-02-16T15:39:56.026Z,21.13
2023-02-16T15:42:51.195Z,22.55
2023-02-16T15:45:35.385Z,23.70
2023-02-16T15:48:39.214Z,24.33
2023-02-16T15:51:31.510Z,20.58
2023-02-16T15:54:39.183Z,21.60
2023-02-16T15:57:34.213Z,20.10
2023-02-16T16:00:26.202Z,20.75
2023-02-16T16:03:15.213Z,25.17
2023-02-16T16:06:00.245Z,24.85
2023-02-16T16:08:47.218Z,21.85
2023-02-16T16:11:35.286Z,22.65
2023-02-16T16:14:17.209Z,25.42
2023-02-16T16:16:57.990Z,23.60
2023-02-16T16:19:49.214Z,25.85
2023-02-16T16:22:37.168Z,23.23
2023-02-16T16:25:45.207Z,23.80
2023-02-16T16:28:28.815Z,23.92
2023-02-16T16:31:25.321Z,24.55
2023-02-16T16:34:18.202Z,24.13
2023-02-16T16:37:10.221Z,21.65
2023-02-16T16:40:07.453Z,23.52
2023-02-16T16:43:18.243Z,24.70
2023-02-16T16:46:17.197Z,24.77
2023-02-16T16:49:10.214Z,24.45
2023-02-16T16:54:48.231Z,23.75
2023-02-16T16:57:30.297Z,21.75
2023-02-16T17:00:18.211Z,24.02
2023-02-16T17:03:05.207Z,28.10
2023-02-16T17:05:45.275Z,20.08
2023-02-16T17:08:32.234Z,25.25
2023-02-16T17:11:19.214Z,18.38
2023-02-16T17:14:30.286Z,18.92
2023-02-16T17:17:12.221Z,24.20
2023-02-16T17:19:59.262Z,30.73
2023-02-16T17:22:39.213Z,29.83
2023-02-16T17:25:20.173Z,32.08
2023-02-16T17:28:07.209Z,56.83
2023-02-16T17:30:47.817Z,26.75
2023-02-16T17:33:34.214Z,29.63
2023-02-16T17:36:16.074Z,29.92
2023-02-16T17:39:03.220Z,24.48
2023-02-16T17:41:50.218Z,25.98
2023-02-16T17:44:37.205Z,21.80
2023-02-16T17:47:17.802Z,29.48
2023-02-16T17:50:04.214Z,24.30
2023-02-16T17:52:44.943Z,23.90
2023-02-16T17:55:31.223Z,25.17
2023-02-16T17:58:19.309Z,22.02
2023-02-16T18:01:00.244Z,20.75
2023-02-16T18:03:47.221Z,23.63
2023-02-16T18:06:30.616Z,21.42
2023-02-16T18:09:22.216Z,25.83
2023-02-16T18:12:02.316Z,20.60
2023-02-16T18:14:49.223Z,20.88
2023-02-16T18:17:36.204Z,22.60
2023-02-16T18:20:24.279Z,23.65
2023-02-16T18:23:04.756Z,24.05
2023-02-16T18:25:52.246Z,20.73
2023-02-16T18:28:36.384Z,20.90
2023-02-16T18:31:23.270Z,23.13
2023-02-16T18:34:04.332Z,21.05
2023-02-16T18:36:51.352Z,22.35
2023-02-16T18:39:31.470Z,23.00
2023-02-16T18:42:18.225Z,21.08
2023-02-16T18:44:58.324Z,20.42
2023-02-16T18:47:45.254Z,19.15
2023-02-16T18:50:32.216Z,21.70
2023-02-16T18:53:19.231Z,20.55
2023-02-16T18:55:59.303Z,20.30
2023-02-16T18:58:46.238Z,18.60
2023-02-16T19:01:38.397Z,18.88
2023-02-16T19:04:25.288Z,18.40
2023-02-16T19:07:05.301Z,19.88
2023-02-16T19:09:52.220Z,18.95
2023-02-16T19:12:32.309Z,16.83
2023-02-16T19:15:19.233Z,17.80
2023-02-16T19:17:59.354Z,18.20
2023-02-16T19:20:46.236Z,15.93
2023-02-16T19:23:26.280Z,16.63
2023-02-16T19:26:15.261Z,17.98
2023-02-16T19:28:55.327Z,16.05
2023-02-16T19:31:42.300Z,17.77
2023-02-16T19:34:22.294Z,15.60
2023-02-16T19:37:09.225Z,17.20
2023-02-16T19:39:49.308Z,16.90
2023-02-16T19:42:36.221Z,16.33
2023-02-16T19:45:16.295Z,15.38
2023-02-16T19:48:03.224Z,18.45
2023-02-16T19:50:43.303Z,16.20
2023-02-16T19:53:30.216Z,15.75
2023-02-16T19:56:23.230Z,14.40
2023-02-16T20:01:50.328Z,13.55
2023-02-16T20:04:30.755Z,13.93
2023-02-16T20:07:17.231Z,12.90
2023-02-16T20:10:04.236Z,13.50
2023-02-16T20:12:51.241Z,12.23
2023-02-16T20:18:18.238Z,12.60
2023-02-16T20:23:50.252Z,11.60
2023-02-16T20:26:42.623Z,11.40
2023-02-16T20:29:29.218Z,13.55
2023-02-16T20:32:09.808Z,11.55
2023-02-16T20:34:57.239Z,10.02
2023-02-16T20:37:37.799Z,10.38
2023-02-16T20:40:27.231Z,9.73
2023-02-16T20:43:07.862Z,9.85
2023-02-16T20:45:54.233Z,9.85
2023-02-16T20:51:21.346Z,10.73
2023-02-16T20:54:09.245Z,8.85
2023-02-16T20:56:56.252Z,9.43
2023-02-16T21:02:25.307Z,9.35
2023-02-16T21:05:13.243Z,8.73
2023-02-16T21:07:54.278Z,8.40
2023-02-16T21:10:41.235Z,8.45
2023-02-16T21:13:28.239Z,8.98
2023-02-16T21:18:57.236Z,8.35
2023-02-16T21:21:44.319Z,8.68
2023-02-16T21:24:24.237Z,8.77
2023-02-16T21:27:04.714Z,7.22
2023-02-16T21:29:52.249Z,7.53
2023-02-16T21:32:32.942Z,6.25
2023-02-16T21:35:19.245Z,7.30
2023-02-16T21:38:06.232Z,7.18
2023-02-16T21:44:06.261Z,7.40
2023-02-16T21:46:49.288Z,7.40
2023-02-16T21:49:36.239Z,8.52
2023-02-16T21:52:16.329Z,6.55
2023-02-16T21:55:22.273Z,6.85
2023-02-16T21:58:07.907Z,6.88
2023-02-16T22:00:58.296Z,6.22
2023-02-16T22:03:38.293Z,6.28
2023-02-16T22:06:25.232Z,6.15
2023-02-16T22:11:54.234Z,6.85
2023-02-16T22:14:34.343Z,6.80
2023-02-16T22:17:21.247Z,6.70
2023-02-16T22:22:48.391Z,8.43
2023-02-16T22:28:16.234Z,7.80
2023-02-16T22:30:56.324Z,8.05
2023-02-16T22:33:43.256Z,8.10
2023-02-16T22:39:11.240Z,8.40
2023-02-16T22:41:51.381Z,8.65
2023-02-16T22:44:38.243Z,8.85
2023-02-16T22:50:05.237Z,8.18
2023-02-16T22:55:32.254Z,8.52
2023-02-16T23:00:59.276Z,8.52
2023-02-16T23:06:29.282Z,9.52
2023-02-16T23:09:12.318Z,9.50
2023-02-16T23:11:59.268Z,10.07
2023-02-16T23:17:36.248Z,9.93
2023-02-16T23:23:17.245Z,10.80
2023-02-16T23:28:47.250Z,10.32
2023-02-16T23:31:35.287Z,13.63
2023-02-16T23:34:23.263Z,10.93
2023-02-16T23:37:03.303Z,9.55
2023-02-16T23:39:50.266Z,11.75
2023-02-16T23:45:17.258Z,10.50
2023-02-16T23:50:44.249Z,10.95
2023-02-16T23:56:14.256Z,12.10
2023-02-16T23:58:54.313Z,11.80
